Weather History for Madisonville, KY

Change the Weather History Date:

Saturday, March 16, 2013

  Actual Average (KOWB) Record (KOWB)
Temperature  
Mean Temperature 58 °F -  
Max Temperature 72 °F 58 °F 85 °F (1945)
Min Temperature 44 °F 36 °F 18 °F (1970)
Degree Days  
Heating Degree Days 8    
Growing Degree Days 8 (Base 50)    
Moisture  
Dew Point 48 °F    
Average Humidity 65    
Maximum Humidity 87    
Minimum Humidity 52    
Precipitation  
Precipitation 0.00 in - - ()
Sea Level Pressure  
Sea Level Pressure 29.84 in    
Wind  
Wind Speed 17 mph (WNW)    
Max Wind Speed 22 mph    
Max Gust Speed 31 mph    
Visibility 9 miles    
Events      
Averages and records for this station are not official NWS values.
T = Trace of Precipitation, MM = Missing Value Source: NWS Daily Summary

Daily Weather History Graph

Daily Weather History Graph

Search for Another Location

Airport:

Trip Planner

Search our weather history database for the weather conditions in past years. The results will help you decide how hot, cold, wet, or windy it might be!

Date:

Astronomy

Mar. 16, 2013 Rise Set
Actual Time 6:58 AM CDT 6:58 PM CDT
Civil Twilight 6:32 AM CDT 7:24 PM CDT
Nautical Twilight 6:02 AM CDT 7:54 PM CDT
Astronomical Twilight 5:31 AM CDT 8:25 PM CDT
Moon 9:34 AM CDT (3/16) 11:59 PM CDT (3/16)
Length of Visible Light 12h 51m
Length of Day
11h 59m
Waxing Crescent, 23% of the Moon is Illuminated
Mar 16
Waxing Crescent
Mar 19
First Quarter
Mar 27
Full
Apr 2
Last Quarter
Apr 10
New

Hourly Weather History & Observations

Time (CDT) Temp. Windchill Dew Point Humidity Pressure Visibility Wind Dir Wind Speed Gust Speed Precip Events Conditions
12:15 AM 67.3 °F - 51.8 °F 58% 29.76 in 10.0 mi WSW 20.7 mph 24.2 mph N/A   Clear
12:35 AM 67.1 °F - 51.8 °F 58% 29.76 in 10.0 mi WSW 20.7 mph 27.6 mph N/A   Clear
12:55 AM 66.6 °F - 51.8 °F 59% 29.75 in 10.0 mi WSW 17.3 mph 24.2 mph N/A   Clear
1:15 AM 66.6 °F - 51.4 °F 58% 29.75 in 10.0 mi WSW 18.4 mph - N/A   Clear
1:35 AM 66.2 °F - 51.6 °F 59% 29.75 in 10.0 mi WSW 18.4 mph - N/A   Clear
1:55 AM 65.7 °F - 51.3 °F 60% 29.75 in 10.0 mi WSW 18.4 mph 25.3 mph N/A   Clear
2:15 AM 65.7 °F - 51.1 °F 59% 29.75 in 10.0 mi WSW 18.4 mph 25.3 mph N/A   Clear
2:35 AM 65.5 °F - 50.7 °F 59% 29.75 in 10.0 mi WSW 18.4 mph 25.3 mph N/A   Clear
2:55 AM 66.2 °F - 50.4 °F 57% 29.74 in 10.0 mi WSW 19.6 mph 27.6 mph N/A   Clear
3:15 AM 65.8 °F - 50.2 °F 57% 29.74 in 10.0 mi WSW 20.7 mph 27.6 mph N/A   Clear
3:35 AM 65.8 °F - 50.0 °F 57% 29.73 in 10.0 mi WSW 17.3 mph 28.8 mph N/A   Clear
3:55 AM 65.5 °F - 50.0 °F 57% 29.73 in 10.0 mi WSW 19.6 mph 24.2 mph N/A   Clear
4:15 AM 64.6 °F - 49.6 °F 58% 29.73 in 10.0 mi WSW 18.4 mph 25.3 mph N/A   Clear
4:35 AM 64.4 °F - 49.6 °F 59% 29.73 in 10.0 mi WSW 18.4 mph 25.3 mph N/A   Clear
4:55 AM 63.7 °F - 49.5 °F 60% 29.73 in 10.0 mi WSW 19.6 mph 25.3 mph N/A   Clear
5:15 AM 63.1 °F - 49.5 °F 61% 29.73 in 10.0 mi WSW 17.3 mph - N/A   Clear
5:35 AM 63.0 °F - 49.3 °F 61% 29.73 in 10.0 mi WSW 16.1 mph - N/A   Clear
5:55 AM 62.1 °F - 49.3 °F 63% 29.74 in 10.0 mi WSW 18.4 mph - N/A   Clear
6:15 AM 62.6 °F - 49.1 °F 61% 29.74 in 10.0 mi WSW 17.3 mph - N/A   Clear
6:35 AM 62.6 °F - 49.1 °F 61% 29.75 in 10.0 mi WSW 18.4 mph 24.2 mph N/A   Clear
6:55 AM 62.6 °F - 49.1 °F 61% 29.75 in 10.0 mi WSW 16.1 mph 23.0 mph N/A   Clear
7:15 AM 62.6 °F - 49.1 °F 61% 29.75 in 10.0 mi WSW 16.1 mph 23.0 mph N/A   Clear
7:35 AM 62.6 °F - 49.1 °F 61% 29.76 in 10.0 mi WSW 12.7 mph 24.2 mph N/A   Clear
7:55 AM 63.0 °F - 49.3 °F 61% 29.76 in 10.0 mi WSW 17.3 mph - N/A   Clear
8:15 AM 63.7 °F - 49.5 °F 60% 29.77 in 10.0 mi WSW 16.1 mph 21.9 mph N/A   Clear
8:35 AM 64.4 °F - 49.6 °F 59% 29.78 in 10.0 mi WSW 16.1 mph 23.0 mph N/A   Clear
8:55 AM 65.5 °F - 50.0 °F 57% 29.78 in 10.0 mi WSW 16.1 mph 20.7 mph N/A   Clear
9:15 AM 66.2 °F - 50.2 °F 56% 29.78 in 10.0 mi WSW 18.4 mph 24.2 mph N/A   Clear
9:35 AM 67.3 °F - 50.4 °F 55% 29.78 in 10.0 mi WSW 18.4 mph 23.0 mph N/A   Clear
9:55 AM 67.3 °F - 51.1 °F 56% 29.78 in 10.0 mi WSW 18.4 mph 26.5 mph N/A   Clear
10:15 AM 68.0 °F - 50.9 °F 54% 29.79 in 10.0 mi West 15.0 mph - N/A   Clear
10:35 AM 69.4 °F - 51.3 °F 52% 29.80 in 10.0 mi West 16.1 mph - N/A   Clear
10:55 AM 70.2 °F - 52.0 °F 52% 29.80 in 10.0 mi West 17.3 mph 24.2 mph N/A   Clear
11:15 AM 70.2 °F - 51.8 °F 52% 29.80 in 10.0 mi West 20.7 mph 27.6 mph N/A   Clear
11:35 AM 69.8 °F - 51.8 °F 53% 29.81 in 10.0 mi WNW 19.6 mph 31.1 mph N/A   Clear
11:55 AM 70.3 °F - 52.3 °F 53% 29.82 in 10.0 mi West 18.4 mph 24.2 mph N/A   Clear
12:15 PM 70.3 °F - 52.0 °F 52% 29.82 in 10.0 mi NW 21.9 mph 26.5 mph N/A   Clear
12:35 PM 70.7 °F - 52.3 °F 52% 29.83 in 10.0 mi NW 15.0 mph 23.0 mph N/A   Scattered Clouds
12:55 PM 70.9 °F - 52.9 °F 53% 29.84 in 10.0 mi WNW 13.8 mph - N/A   Clear
1:15 PM 71.8 °F - 53.2 °F 52% 29.84 in 10.0 mi NW 15.0 mph 21.9 mph N/A   Scattered Clouds
1:35 PM 68.5 °F - 53.1 °F 58% 29.85 in 10.0 mi NNW 16.1 mph 21.9 mph N/A   Scattered Clouds
1:55 PM 67.8 °F - 52.5 °F 58% 29.85 in 10.0 mi NNW 10.4 mph 19.6 mph N/A   Clear
2:15 PM 67.6 °F - 52.7 °F 59% 29.85 in 10.0 mi North 17.3 mph 20.7 mph N/A   Clear
2:35 PM 64.4 °F - 52.2 °F 64% 29.85 in 10.0 mi North 18.4 mph 25.3 mph N/A   Clear
2:55 PM 62.6 °F - 50.5 °F 65% 29.86 in 10.0 mi North 13.8 mph - N/A   Clear
3:15 PM 61.2 °F - 50.2 °F 67% 29.88 in 7.0 mi North 18.4 mph 24.2 mph N/A   Clear
3:35 PM 59.4 °F - 48.9 °F 68% 29.89 in 7.0 mi North 18.4 mph 24.2 mph N/A   Clear
3:55 PM 57.2 °F - 47.5 °F 70% 29.90 in 5.0 mi North 18.4 mph - N/A   Haze
4:15 PM 57.2 °F - 47.3 °F 69% 29.90 in 5.0 mi NNW 12.7 mph - N/A   Haze
4:35 PM 56.1 °F - 46.6 °F 70% 29.91 in 5.0 mi NNW 13.8 mph - N/A   Haze
4:55 PM 55.9 °F - 46.6 °F 71% 29.92 in 5.0 mi North 12.7 mph 17.3 mph N/A   Haze
5:15 PM 55.4 °F - 46.0 °F 71% 29.93 in 5.0 mi NNW 10.4 mph - N/A   Haze
5:35 PM 55.2 °F - 45.7 °F 70% 29.93 in 5.0 mi North 13.8 mph - N/A   Haze
5:55 PM 55.0 °F - 46.0 °F 72% 29.92 in 5.0 mi North 10.4 mph - N/A   Haze
6:15 PM 54.5 °F - 45.5 °F 72% 29.92 in 7.0 mi North 13.8 mph - N/A   Clear
6:35 PM 52.9 °F - 44.8 °F 74% 29.93 in 7.0 mi North 12.7 mph - N/A   Clear
6:55 PM 52.2 °F - 43.9 °F 73% 29.95 in 7.0 mi North 13.8 mph - N/A   Clear
7:15 PM 51.4 °F - 43.9 °F 75% 29.97 in 10.0 mi North 12.7 mph - N/A   Clear
7:35 PM 50.4 °F - 43.5 °F 77% 29.96 in 7.0 mi North 13.8 mph - N/A   Clear
7:55 PM 49.8 °F - 43.7 °F 79% 29.97 in 7.0 mi NNE 8.1 mph - N/A   Scattered Clouds
8:15 PM 49.3 °F - 43.0 °F 79% 29.96 in 7.0 mi NNE 10.4 mph - N/A   Clear
8:35 PM 48.6 °F - 42.8 °F 80% 29.97 in 7.0 mi NNE 11.5 mph - N/A   Scattered Clouds
8:55 PM 48.0 °F - 42.4 °F 81% 29.98 in 7.0 mi NNE 10.4 mph - N/A   Mostly Cloudy
9:15 PM 47.3 °F - 41.9 °F 82% 29.99 in 7.0 mi NNE 11.5 mph - N/A   Overcast
9:35 PM 46.8 °F - 41.5 °F 82% 29.99 in 7.0 mi NNE 13.8 mph 19.6 mph N/A   Overcast
9:55 PM 46.6 °F - 41.5 °F 83% 29.99 in 7.0 mi NNE 12.7 mph - N/A   Overcast
10:15 PM 46.4 °F 42.4 °F 41.0 °F 81% 30.00 in 7.0 mi NE 8.1 mph - N/A   Overcast
10:35 PM 45.9 °F 41.2 °F 41.2 °F 84% 30.00 in 7.0 mi NNE 9.2 mph - N/A   Overcast
10:55 PM 45.5 °F 40.3 °F 41.0 °F 84% 30.00 in 7.0 mi NNE 10.4 mph - N/A   Overcast
11:15 PM 45.5 °F 41.3 °F 41.0 °F 84% 29.99 in 7.0 mi North 8.1 mph - N/A   Overcast
11:35 PM 44.8 °F 39.9 °F 41.0 °F 87% 29.99 in 7.0 mi NNE 9.2 mph - N/A   Overcast
11:55 PM 44.6 °F 40.2 °F 40.8 °F 87% 29.98 in 7.0 mi NNE 8.1 mph - N/A   Overcast